Time;durP1;ratioP1;P1;durP2;ratioP2;P2;SDS_P1;SDS_P2;PMS_P1;PMS_P2;Temp;Humidity;BMP_temperature;BMP_pressure;BME280_temperature;BME280_humidity;BME280_pressure;Samples;Min_cycle;Max_cycle;Signal;HPM_P1;HPM_P2
2021/10/20 00:02:18;;;;;;;;;;;;;;;-144.51;100.00;69251.94;4881889;29;19915;-69
2021/10/20 00:05:02;;;;;;;;;;;;;;;-144.51;100.00;69251.94;4882279;29;20375;-69
2021/10/20 00:07:48;;;;;;;;;;;;;;;-144.51;100.00;69251.94;4903543;29;19915;-69
2021/10/20 00:10:33;;;;;;;;;;;;;;;-144.51;100.00;69251.94;4886262;29;19916;-69
2021/10/20 00:13:17;;;;;;;;;;;;;;;-144.51;100.00;69251.94;4863180;29;19920;-69
2021/10/20 00:16:02;;;;;;;;;;;;;;;-144.51;100.00;69251.94;4872737;29;19917;-70
2021/10/20 00:18:48;;;;;;;;;;;;;;;-144.51;100.00;69251.94;4877987;29;19916;-69
2021/10/20 00:21:33;;;;;;;;;;;;;;;-144.51;100.00;69251.94;4886128;29;19916;-69
2021/10/20 00:24:17;;;;;;;;;;;;;;;-144.51;100.00;69251.94;4863558;29;19916;-69
2021/10/20 00:27:02;;;;;;;;;;;;;;;-144.51;100.00;69251.94;4873252;29;19916;-69
2021/10/20 00:29:46;;;;;;;;;;;;;;;-144.51;100.00;69251.94;4890833;29;19915;-69
2021/10/20 00:32:31;;;;;;;;;;;;;;;-144.51;100.00;69251.94;4866154;29;19920;-69
2021/10/20 00:35:16;;;;;;;;;;;;;;;-144.51;100.00;69251.94;4863998;29;19920;-69
2021/10/20 00:38:00;;;;;;;;;;;;;;;-144.51;100.00;69251.94;4877155;29;20384;-68
2021/10/20 00:40:45;;;;;;;;;;;;;;;-144.51;100.00;69251.94;4879656;29;20376;-68
2021/10/20 00:43:30;;;;;;;;;;;;;;;-144.51;100.00;69251.94;4877372;29;19920;-68
2021/10/20 00:46:24;;;;;;;;;;;;;;;-144.51;100.00;69251.94;4898516;29;19937;-68
2021/10/20 00:49:08;;;;;;;;;;;;;;;-144.51;100.00;69251.94;4878988;29;19916;-71
2021/10/20 00:51:52;;;;;;;;;;;;;;;-144.51;100.00;69251.94;4879825;29;19919;-71
2021/10/20 00:54:37;;;;;;;;;;;;;;;-144.51;100.00;69251.94;4876647;29;19916;-71
2021/10/20 00:57:23;;;;;;;;;;;;;;;-144.51;100.00;69251.94;4876294;29;20004;-70
2021/10/20 01:00:08;;;;;;;;;;;;;;;-144.51;100.00;69251.94;4879872;29;19916;-71
2021/10/20 01:02:54;;;;;;;;;;;;;;;-144.51;100.00;69251.94;4884955;29;19915;-71
2021/10/20 01:05:38;;;;;;;;;;;;;;;-144.51;100.00;69251.94;4892042;29;19916;-71
2021/10/20 01:08:23;;;;;;;;;;;;;;;-144.51;100.00;69251.94;4866484;29;19915;-69
2021/10/20 01:11:07;;;;;;;;;;;;;;;-144.51;100.00;69251.94;4890881;29;19919;-71
2021/10/20 01:13:52;;;;;;;;;;;;;;;-144.51;100.00;69251.94;4876982;29;19920;-70
2021/10/20 01:16:37;;;;;;;;;;;;;;;-144.51;100.00;69251.94;4871812;29;19915;-70
2021/10/20 01:19:22;;;;;;;;;;;;;;;-144.51;100.00;69251.94;4873152;29;19916;-70
2021/10/20 01:22:07;;;;;;;;;;;;;;;-144.51;100.00;69251.94;4873708;29;19915;-71
2021/10/20 01:24:52;;;;;;;;;;;;;;;-144.51;100.00;69251.94;4889612;29;19915;-72
2021/10/20 01:27:36;;;;;;;;;;;;;;;-144.51;100.00;69251.94;4881421;29;19915;-71
2021/10/20 01:30:21;;;;;;;;;;;;;;;-144.51;100.00;69251.94;4874866;29;19920;-72
2021/10/20 01:33:05;;;;;;;;;;;;;;;-144.51;100.00;69251.94;4883669;29;19920;-72
2021/10/20 01:35:50;;;;;;;;;;;;;;;-144.51;100.00;69251.94;4881851;29;19923;-71
2021/10/20 01:38:34;;;;;;;;;;;;;;;-144.51;100.00;69251.94;4874087;29;19916;-71
2021/10/20 01:41:19;;;;;;;;;;;;;;;-144.51;100.00;69251.94;4879281;29;20372;-71
2021/10/20 01:44:04;;;;;;;;;;;;;;;-144.51;100.00;69251.94;4879646;29;20529;-71
2021/10/20 01:46:49;;;;;;;;;;;;;;;-144.51;100.00;69251.94;4880842;29;19915;-71
2021/10/20 01:49:34;;;;;;;;;;;;;;;-144.51;100.00;69251.94;4875980;29;19919;-71
2021/10/20 01:52:19;;;;;;;;;;;;;;;-144.51;100.00;69251.94;4884507;29;19927;-71
2021/10/20 01:55:05;;;;;;;;;;;;;;;-144.51;100.00;69251.94;4871032;29;19916;-71
2021/10/20 01:57:50;;;;;;;;;;;;;;;-144.51;100.00;69251.94;4897345;29;19923;-71
2021/10/20 02:00:34;;;;;;;;;;;;;;;-144.51;100.00;69251.94;4865186;29;19919;-71
2021/10/20 02:03:18;;;;;;;;;;;;;;;-144.51;100.00;69251.94;4883537;29;19918;-71
2021/10/20 02:06:04;;;;;;;;;;;;;;;-144.51;100.00;69251.94;4878539;29;19979;-70
2021/10/20 02:08:48;;;;;;;;;;;;;;;-144.51;100.00;69251.94;4878972;29;19915;-70
2021/10/20 02:11:34;;;;;;;;;;;;;;;-144.51;100.00;69251.94;4878884;29;19919;-70
2021/10/20 02:14:18;;;;;;;;;;;;;;;-144.51;100.00;69251.94;4879211;29;19915;-71
2021/10/20 02:17:03;;;;;;;;;;;;;;;-144.51;100.00;69251.94;4867426;29;19916;-71
2021/10/20 02:19:47;;;;;;;;;;;;;;;-144.51;100.00;69251.94;4877503;29;19919;-71
2021/10/20 02:22:33;;;;;;;;;;;;;;;-144.51;100.00;69251.94;4878883;29;19915;-71
2021/10/20 02:25:18;;;;;;;;;;;;;;;-144.51;100.00;69251.94;4877581;29;19916;-71
2021/10/20 02:28:02;;;;;;;;;;;;;;;-144.51;100.00;69251.94;4878632;29;20299;-71
2021/10/20 02:30:46;;;;;;;;;;;;;;;-144.51;100.00;69251.94;4879486;29;19916;-70
2021/10/20 02:33:32;;;;;;;;;;;;;;;-144.51;100.00;69251.94;4879771;29;19919;-70
2021/10/20 02:36:16;;;;;;;;;;;;;;;-144.51;100.00;69251.94;4870973;29;19915;-70
2021/10/20 02:39:01;;;;;;;;;;;;;;;-144.51;100.00;69251.94;4880268;29;20006;-70
2021/10/20 02:41:45;;;;;;;;;;;;;;;-144.51;100.00;69251.94;4878101;29;20653;-69
2021/10/20 02:44:30;;;;;;;;;;;;;;;-144.51;100.00;69251.94;4870617;29;19916;-72
2021/10/20 02:47:14;;;;;;;;;;;;;;;-144.51;100.00;69251.94;4878630;29;20356;-72
2021/10/20 02:49:59;;;;;;;;;;;;;;;-144.51;100.00;69251.94;4878842;29;19915;-72
2021/10/20 02:52:43;;;;;;;;;;;;;;;-144.51;100.00;69251.94;4878578;29;19920;-71
2021/10/20 02:55:29;;;;;;;;;;;;;;;-144.51;100.00;69251.94;4877424;29;19915;-71
2021/10/20 02:58:13;;;;;;;;;;;;;;;-144.51;100.00;69251.94;4878222;29;20287;-71
2021/10/20 03:00:58;;;;;;;;;;;;;;;-144.51;100.00;69251.94;4877335;29;19915;-71
2021/10/20 03:03:42;;;;;;;;;;;;;;;-144.51;100.00;69251.94;4878561;29;19916;-71
2021/10/20 03:06:27;;;;;;;;;;;;;;;-144.51;100.00;69251.94;4881464;29;19916;-70
2021/10/20 03:09:11;;;;;;;;;;;;;;;-144.51;100.00;69251.94;4882204;29;19919;-70
2021/10/20 03:11:55;;;;;;;;;;;;;;;-144.51;100.00;69251.94;4881885;29;19919;-70
2021/10/20 03:14:40;;;;;;;;;;;;;;;-144.51;100.00;69251.94;4882068;29;19920;-70
2021/10/20 03:17:25;;;;;;;;;;;;;;;-144.51;100.00;69251.94;4878946;29;19920;-69
2021/10/20 03:20:10;;;;;;;;;;;;;;;-144.51;100.00;69251.94;4882415;29;19915;-70
2021/10/20 03:22:55;;;;;;;;;;;;;;;-144.51;100.00;69251.94;4874105;29;19915;-70
2021/10/20 03:25:39;;;;;;;;;;;;;;;-144.51;100.00;69251.94;4874085;29;19915;-70
2021/10/20 03:28:24;;;;;;;;;;;;;;;-144.51;100.00;69251.94;4876025;29;20311;-71
2021/10/20 03:31:09;;;;;;;;;;;;;;;-144.51;100.00;69251.94;4881410;29;19916;-71
2021/10/20 03:33:54;;;;;;;;;;;;;;;-144.51;100.00;69251.94;4881672;29;19920;-71
2021/10/20 03:36:38;;;;;;;;;;;;;;;-144.51;100.00;69251.94;4873317;29;19916;-71
2021/10/20 03:39:23;;;;;;;;;;;;;;;-144.51;100.00;69251.94;4863693;29;19938;-71
2021/10/20 03:42:09;;;;;;;;;;;;;;;-144.51;100.00;69251.94;4880705;29;19916;-71
2021/10/20 03:44:54;;;;;;;;;;;;;;;-144.51;100.00;69251.94;4881387;29;20268;-70
2021/10/20 03:47:38;;;;;;;;;;;;;;;-144.51;100.00;69251.94;4879940;29;19916;-70
2021/10/20 03:50:22;;;;;;;;;;;;;;;-144.51;100.00;69251.94;4881598;29;19915;-70
2021/10/20 03:53:07;;;;;;;;;;;;;;;-144.51;100.00;69251.94;4870105;29;20291;-69
2021/10/20 03:55:52;;;;;;;;;;;;;;;-144.51;100.00;69251.94;4880321;29;20276;-71
2021/10/20 03:58:36;;;;;;;;;;;;;;;-144.51;100.00;69251.94;4877941;29;19924;-71
2021/10/20 04:01:21;;;;;;;;;;;;;;;-144.51;100.00;69251.94;4877926;29;19920;-70
2021/10/20 04:04:05;;;;;;;;;;;;;;;-144.51;100.00;69251.94;4912464;23;19924;-67
2021/10/20 04:06:49;;;;;;;;;;;;;;;-144.51;100.00;69251.94;4882318;29;19920;-67
2021/10/20 04:09:34;;;;;;;;;;;;;;;-144.51;100.00;69251.94;4880971;29;19916;-67
2021/10/20 04:12:18;;;;;;;;;;;;;;;-144.51;100.00;69251.94;4870902;29;19924;-68
2021/10/20 04:15:03;;;;;;;;;;;;;;;-144.51;100.00;69251.94;4880680;29;19915;-68
2021/10/20 04:17:48;;;;;;;;;;;;;;;-144.51;100.00;69251.94;4876023;29;20494;-67
2021/10/20 04:20:32;;;;;;;;;;;;;;;-144.51;100.00;69251.94;4874315;29;19916;-68
2021/10/20 04:23:17;;;;;;;;;;;;;;;-144.51;100.00;69251.94;4883207;29;19916;-68
2021/10/20 04:26:01;;;;;;;;;;;;;;;-144.51;100.00;69251.94;4880148;29;20273;-69
2021/10/20 04:28:45;;;;;;;;;;;;;;;-144.51;100.00;69251.94;4876828;29;19915;-67
2021/10/20 04:31:30;;;;;;;;;;;;;;;-144.51;100.00;69251.94;4877909;29;19916;-68
2021/10/20 04:34:16;;;;;;;;;;;;;;;-144.51;100.00;69251.94;4877663;29;20376;-69
2021/10/20 04:37:00;;;;;;;;;;;;;;;-144.51;100.00;69251.94;4879713;29;20487;-68
2021/10/20 04:39:45;;;;;;;;;;;;;;;-144.51;100.00;69251.94;4874936;29;20387;-68
2021/10/20 04:42:30;;;;;;;;;;;;;;;-144.51;100.00;69251.94;4911575;29;20288;-68
2021/10/20 04:45:14;;;;;;;;;;;;;;;-144.51;100.00;69251.94;4880873;29;19924;-68
2021/10/20 04:47:59;;;;;;;;;;;;;;;-144.51;100.00;69251.94;4886897;29;19919;-68
2021/10/20 04:50:43;;;;;;;;;;;;;;;-144.51;100.00;69251.94;4879523;29;19916;-68
2021/10/20 04:53:28;;;;;;;;;;;;;;;-144.51;100.00;69251.94;4889993;29;20423;-68
2021/10/20 04:56:12;;;;;;;;;;;;;;;-144.51;100.00;69251.94;4878680;29;19916;-68
2021/10/20 04:58:57;;;;;;;;;;;;;;;-144.51;100.00;69251.94;4879361;29;19920;-68
2021/10/20 05:01:41;;;;;;;;;;;;;;;-144.51;100.00;69251.94;4906790;29;19919;-68
2021/10/20 05:04:26;;;;;;;;;;;;;;;-144.51;100.00;69251.94;4879216;29;19919;-68
2021/10/20 05:07:13;;;;;;;;;;;;;;;-144.51;100.00;69251.94;4874898;29;20376;-68
2021/10/20 05:09:58;;;;;;;;;;;;;;;-144.51;100.00;69251.94;4881164;29;19923;-68
2021/10/20 05:12:43;;;;;;;;;;;;;;;-144.51;100.00;69251.94;4873443;29;19920;-70
2021/10/20 05:15:27;;;;;;;;;;;;;;;-144.51;100.00;69251.94;4877865;29;19916;-68
2021/10/20 05:18:12;;;;;;;;;;;;;;;-144.51;100.00;69251.94;4872942;29;19920;-69
2021/10/20 05:20:56;;;;;;;;;;;;;;;-144.51;100.00;69251.94;4874081;29;19916;-69
2021/10/20 05:23:42;;;;;;;;;;;;;;;-144.51;100.00;69251.94;4879170;29;19919;-69
2021/10/20 05:26:27;;;;;;;;;;;;;;;-144.51;100.00;69251.94;4872636;29;19915;-67
2021/10/20 05:29:12;;;;;;;;;;;;;;;-144.51;100.00;69251.94;4863589;29;19916;-67
2021/10/20 05:31:56;;;;;;;;;;;;;;;-144.51;100.00;69251.94;4880016;29;19920;-67
2021/10/20 05:34:41;;;;;;;;;;;;;;;-144.51;100.00;69251.94;4885178;29;19924;-67
2021/10/20 05:37:25;;;;;;;;;;;;;;;-144.51;100.00;69251.94;4872368;29;20380;-67
2021/10/20 05:40:10;;;;;;;;;;;;;;;-144.51;100.00;69251.94;4887253;29;19915;-67
2021/10/20 05:42:54;;;;;;;;;;;;;;;-144.51;100.00;69251.94;4907317;29;19915;-67
2021/10/20 05:45:39;;;;;;;;;;;;;;;-144.51;100.00;69251.94;4884217;29;20307;-68
2021/10/20 05:48:23;;;;;;;;;;;;;;;-144.51;100.00;69251.94;4898268;29;20384;-67
2021/10/20 05:51:08;;;;;;;;;;;;;;;-144.51;100.00;69251.94;4880082;29;19920;-67
2021/10/20 05:53:53;;;;;;;;;;;;;;;-144.51;100.00;69251.94;4874725;29;20415;-68
2021/10/20 05:56:37;;;;;;;;;;;;;;;-144.51;100.00;69251.94;4878413;29;19919;-67
2021/10/20 05:59:23;;;;;;;;;;;;;;;-144.51;100.00;69251.94;4892692;29;19915;-68
2021/10/20 06:02:12;;;;;;;;;;;;;;;-144.51;100.00;69251.94;4892269;29;19915;-68
2021/10/20 06:04:57;;;;;;;;;;;;;;;-144.51;100.00;69251.94;4900561;29;19916;-68
2021/10/20 06:07:42;;;;;;;;;;;;;;;-144.51;100.00;69251.94;4915271;29;19915;-68
2021/10/20 06:10:27;;;;;;;;;;;;;;;-144.51;100.00;69251.94;4880247;29;19916;-68
2021/10/20 06:13:11;;;;;;;;;;;;;;;-144.51;100.00;69251.94;4883148;29;20372;-68
2021/10/20 06:15:55;;;;;;;;;;;;;;;-144.51;100.00;69251.94;4875444;29;20379;-68
2021/10/20 06:18:40;;;;;;;;;;;;;;;-144.51;100.00;69251.94;4877668;29;19919;-67
2021/10/20 06:21:25;;;;;;;;;;;;;;;-144.51;100.00;69251.94;4894637;29;19919;-68
2021/10/20 06:24:09;;;;;;;;;;;;;;;-144.51;100.00;69251.94;4885823;29;19919;-68
2021/10/20 06:26:54;;;;;;;;;;;;;;;-144.51;100.00;69251.94;4878276;29;19924;-68
2021/10/20 06:29:39;;;;;;;;;;;;;;;-144.51;100.00;69251.94;4878091;29;19920;-68
2021/10/20 06:32:23;;;;;;;;;;;;;;;-144.51;100.00;69251.94;4878203;29;19916;-62
2021/10/20 06:35:10;;;;;;;;;;;;;;;-144.51;100.00;69251.94;4860306;29;19916;-61
2021/10/20 06:37:55;;;;;;;;;;;;;;;-144.51;100.00;69251.94;4886495;29;19916;-61
2021/10/20 06:40:39;;;;;;;;;;;;;;;-144.51;100.00;69251.94;4864465;29;19916;-61
2021/10/20 06:43:24;;;;;;;;;;;;;;;-144.51;100.00;69251.94;4866186;29;19916;-61
2021/10/20 06:46:08;;;;;;;;;;;;;;;-144.51;100.00;69251.94;4865287;29;19915;-61
2021/10/20 06:48:53;;;;;;;;;;;;;;;-144.51;100.00;69251.94;4866158;29;19915;-61
2021/10/20 06:51:38;;;;;;;;;;;;;;;-144.51;100.00;69251.94;4866232;29;19916;-61
2021/10/20 06:54:22;;;;;;;;;;;;;;;-144.51;100.00;69251.94;4866171;29;20446;-62
2021/10/20 06:57:06;;;;;;;;;;;;;;;-144.51;100.00;69251.94;4866143;29;19916;-61
2021/10/20 06:59:51;;;;;;;;;;;;;;;-144.51;100.00;69251.94;4866091;29;19916;-61
2021/10/20 07:02:36;;;;;;;;;;;;;;;-144.51;100.00;69251.94;4866313;29;20261;-61
2021/10/20 07:05:20;;;;;;;;;;;;;;;-144.51;100.00;69251.94;4871282;29;19916;-61
2021/10/20 07:08:05;;;;;;;;;;;;;;;-144.51;100.00;69251.94;4866075;29;19916;-65
2021/10/20 07:10:49;;;;;;;;;;;;;;;-144.51;100.00;69251.94;4873508;29;19919;-65
2021/10/20 07:13:33;;;;;;;;;;;;;;;-144.51;100.00;69251.94;4884727;29;19920;-67
2021/10/20 07:16:18;;;;;;;;;;;;;;;-144.51;100.00;69251.94;4884687;29;20372;-67
2021/10/20 07:19:07;;;;;;;;;;;;;;;-144.51;100.00;69251.94;4884509;29;19916;-67
2021/10/20 07:21:52;;;;;;;;;;;;;;;-144.51;100.00;69251.94;4884468;29;20261;-66
2021/10/20 07:24:37;;;;;;;;;;;;;;;-144.51;100.00;69251.94;4884467;29;19997;-64
2021/10/20 07:27:22;;;;;;;;;;;;;;;-144.51;100.00;69251.94;4884505;29;19915;-64
2021/10/20 07:30:08;;;;;;;;;;;;;;;-144.51;100.00;69251.94;4884422;29;20293;-63
2021/10/20 07:32:53;;;;;;;;;;;;;;;-144.51;100.00;69251.94;4884348;29;19998;-66
2021/10/20 07:35:37;;;;;;;;;;;;;;;-144.51;100.00;69251.94;4877012;29;19920;-66
2021/10/20 07:38:22;;;;;;;;;;;;;;;-144.51;100.00;69251.94;4865992;29;20376;-64
2021/10/20 07:41:07;;;;;;;;;;;;;;;-144.51;100.00;69251.94;4865823;29;20270;-66
2021/10/20 07:43:51;;;;;;;;;;;;;;;-144.51;100.00;69251.94;4865796;29;19916;-66
2021/10/20 07:46:36;;;;;;;;;;;;;;;-144.51;100.00;69251.94;4865716;29;19916;-65
2021/10/20 07:49:20;;;;;;;;;;;;;;;-144.51;100.00;69251.94;4865694;29;19916;-65
2021/10/20 07:52:04;;;;;;;;;;;;;;;-144.51;100.00;69251.94;4873025;29;19915;-65
2021/10/20 07:54:49;;;;;;;;;;;;;;;-144.51;100.00;69251.94;4896086;29;19919;-66
2021/10/20 07:57:33;;;;;;;;;;;;;;;-144.51;100.00;69251.94;4900114;29;19915;-66
2021/10/20 08:00:18;;;;;;;;;;;;;;;-144.51;100.00;69251.94;4862611;29;19916;-65
2021/10/20 08:03:03;;;;;;;;;;;;;;;-144.51;100.00;69251.94;4862534;29;19916;-64
2021/10/20 08:05:47;;;;;;;;;;;;;;;-144.51;100.00;69251.94;4862725;29;19920;-66
2021/10/20 08:08:32;;;;;;;;;;;;;;;-144.51;100.00;69251.94;4862539;29;20184;-65
2021/10/20 08:11:16;;;;;;;;;;;;;;;-144.51;100.00;69251.94;4862505;29;20281;-64
2021/10/20 08:14:03;;;;;;;;;;;;;;;-144.51;100.00;69251.94;4862461;29;20373;-65
2021/10/20 08:16:48;;;;;;;;;;;;;;;-144.51;100.00;69251.94;4862677;29;19916;-67
2021/10/20 08:19:32;;;;;;;;;;;;;;;-144.51;100.00;69251.94;4867166;29;19916;-65
2021/10/20 08:22:17;;;;;;;;;;;;;;;-144.51;100.00;69251.94;4880898;29;19916;-66
2021/10/20 08:25:02;;;;;;;;;;;;;;;-144.51;100.00;69251.94;4880819;29;20367;-67
2021/10/20 08:27:47;;;;;;;;;;;;;;;-144.51;100.00;69251.94;4880806;29;19915;-63
2021/10/20 08:30:32;;;;;;;;;;;;;;;-144.51;100.00;69251.94;4880663;29;19915;-64
2021/10/20 08:33:17;;;;;;;;;;;;;;;-144.51;100.00;69251.94;4880645;29;19921;-64
2021/10/20 08:36:02;;;;;;;;;;;;;;;-144.51;100.00;69251.94;4880659;29;19927;-65
2021/10/20 08:38:46;;;;;;;;;;;;;;;-144.51;100.00;69251.94;4880568;29;19915;-65
2021/10/20 08:41:31;;;;;;;;;;;;;;;-144.51;100.00;69251.94;4880565;29;19915;-65
2021/10/20 08:44:16;;;;;;;;;;;;;;;-144.51;100.00;69251.94;4880534;29;20300;-65
2021/10/20 08:47:00;;;;;;;;;;;;;;;-144.51;100.00;69251.94;4880423;29;19915;-67
2021/10/20 08:49:46;;;;;;;;;;;;;;;-144.51;100.00;69251.94;4880290;29;19916;-65
2021/10/20 08:52:31;;;;;;;;;;;;;;;-144.51;100.00;69251.94;4880369;29;19916;-65
2021/10/20 08:55:16;;;;;;;;;;;;;;;-144.51;100.00;69251.94;4880259;29;19923;-65
2021/10/20 08:58:01;;;;;;;;;;;;;;;-144.51;100.00;69251.94;4880233;29;19915;-65
2021/10/20 09:00:45;;;;;;;;;;;;;;;-144.51;100.00;69251.94;4880173;29;20380;-65
2021/10/20 09:03:30;;;;;;;;;;;;;;;-144.51;100.00;69251.94;4879482;29;19915;-64
2021/10/20 09:06:15;;;;;;;;;;;;;;;-144.51;100.00;69251.94;4880047;29;19916;-67
2021/10/20 09:09:04;;;;;;;;;;;;;;;-144.51;100.00;69251.94;4879989;29;19916;-67
2021/10/20 09:11:49;;;;;;;;;;;;;;;-144.51;100.00;69251.94;4880010;29;20383;-65
2021/10/20 09:14:33;;;;;;;;;;;;;;;-144.51;100.00;69251.94;4879817;29;19919;-64
2021/10/20 09:17:18;;;;;;;;;;;;;;;-144.51;100.00;69251.94;4879843;29;19915;-66
2021/10/20 09:20:13;;;;;;;;;;;;;;;-144.51;100.00;69251.94;4879625;29;20380;-66
2021/10/20 09:22:58;;;;;;;;;;;;;;;-144.51;100.00;69251.94;4879751;29;19915;-66
2021/10/20 09:25:44;;;;;;;;;;;;;;;-144.51;100.00;69251.94;4880042;29;19916;-66
2021/10/20 09:28:33;;;;;;;;;;;;;;;-144.51;100.00;69251.94;4884682;29;19919;-65
2021/10/20 09:31:20;;;;;;;;;;;;;;;-144.51;100.00;69251.94;4879637;29;19915;-64
2021/10/20 09:34:05;;;;;;;;;;;;;;;-144.51;100.00;69251.94;4879555;29;20280;-64
2021/10/20 09:36:51;;;;;;;;;;;;;;;-144.51;100.00;69251.94;4879489;29;20361;-66
2021/10/20 09:39:36;;;;;;;;;;;;;;;-144.51;100.00;69251.94;4879484;29;19915;-66
2021/10/20 09:42:21;;;;;;;;;;;;;;;-144.51;100.00;69251.94;4879427;29;19915;-64
2021/10/20 09:45:05;;;;;;;;;;;;;;;-144.51;100.00;69251.94;4879665;29;19915;-64
2021/10/20 09:47:52;;;;;;;;;;;;;;;-144.51;100.00;69251.94;4879377;29;19916;-64
2021/10/20 09:50:54;;;;;;;;;;;;;;;-144.51;100.00;69251.94;4879292;29;20273;-67
2021/10/20 09:53:42;;;;;;;;;;;;;;;-144.51;100.00;69251.94;4879157;29;20380;-65
2021/10/20 09:56:30;;;;;;;;;;;;;;;-144.51;100.00;69251.94;4878522;29;20376;-65
2021/10/20 09:59:15;;;;;;;;;;;;;;;-144.51;100.00;69251.94;4879110;29;19915;-66
2021/10/20 10:02:00;;;;;;;;;;;;;;;-144.51;100.00;69251.94;4878093;29;19916;-64
2021/10/20 10:04:44;;;;;;;;;;;;;;;-144.51;100.00;69251.94;4885479;29;19915;-67
2021/10/20 10:07:29;;;;;;;;;;;;;;;-144.51;100.00;69251.94;4867102;29;19916;-66
2021/10/20 10:10:13;;;;;;;;;;;;;;;-144.51;100.00;69251.94;4897842;29;19916;-64
2021/10/20 10:13:01;;;;;;;;;;;;;;;-144.51;100.00;69251.94;4860425;29;19916;-67
2021/10/20 10:15:46;;;;;;;;;;;;;;;-144.51;100.00;69251.94;4907620;23;19927;-63
2021/10/20 10:18:35;;;;;;;;;;;;;;;-144.51;100.00;69251.94;4913616;29;19919;-62
2021/10/20 10:21:30;;;;;;;;;;;;;;;-144.51;100.00;69251.94;4916443;29;19915;-61
2021/10/20 10:24:16;;;;;;;;;;;;;;;-144.51;100.00;69251.94;4892476;29;19920;-61
2021/10/20 10:27:04;;;;;;;;;;;;;;;-144.51;100.00;69251.94;4896468;29;19916;-62
2021/10/20 10:30:27;;;;;;;;;;;;;;;-144.51;100.00;69251.94;4897254;29;19916;-62
2021/10/20 10:33:28;;;;;;;;;;;;;;;-144.51;100.00;69251.94;4850066;29;20414;-61
2021/10/20 10:36:13;;;;;;;;;;;;;;;-144.51;100.00;69251.94;4857873;29;19916;-62
2021/10/20 10:38:58;;;;;;;;;;;;;;;-144.51;100.00;69251.94;4877965;29;19916;-61
2021/10/20 10:41:45;;;;;;;;;;;;;;;-144.51;100.00;69251.94;4878715;29;19916;-62
2021/10/20 10:44:30;;;;;;;;;;;;;;;-144.51;100.00;69251.94;4878680;29;19916;-62
2021/10/20 10:47:19;;;;;;;;;;;;;;;-144.51;100.00;69251.94;4878676;29;20289;-62
2021/10/20 10:50:09;;;;;;;;;;;;;;;-144.51;100.00;69251.94;4879405;29;19916;-62
2021/10/20 10:52:54;;;;;;;;;;;;;;;-144.51;100.00;69251.94;4878692;29;19915;-62
2021/10/20 10:55:38;;;;;;;;;;;;;;;-144.51;100.00;69251.94;4878505;29;19920;-62
2021/10/20 10:58:23;;;;;;;;;;;;;;;-144.51;100.00;69251.94;4878571;29;19916;-62
2021/10/20 11:01:27;;;;;;;;;;;;;;;-144.51;100.00;69251.94;4878617;29;20387;-62
2021/10/20 11:04:22;;;;;;;;;;;;;;;-144.51;100.00;69251.94;4878657;29;20211;-61
2021/10/20 11:07:08;;;;;;;;;;;;;;;-144.51;100.00;69251.94;4878272;29;20372;-62
2021/10/20 11:09:55;;;;;;;;;;;;;;;-144.51;100.00;69251.94;4903928;29;19916;-62
2021/10/20 11:12:40;;;;;;;;;;;;;;;-144.51;100.00;69251.94;4878481;29;19916;-62
2021/10/20 11:15:26;;;;;;;;;;;;;;;-144.51;100.00;69251.94;4878226;29;19920;-61
2021/10/20 11:18:11;;;;;;;;;;;;;;;-144.51;100.00;69251.94;4878440;29;20388;-62
2021/10/20 11:20:56;;;;;;;;;;;;;;;-144.51;100.00;69251.94;4878381;29;19924;-62
2021/10/20 11:23:40;;;;;;;;;;;;;;;-144.51;100.00;69251.94;4878579;29;19920;-61
2021/10/20 11:26:24;;;;;;;;;;;;;;;-144.51;100.00;69251.94;4879739;29;19915;-62
2021/10/20 11:29:09;;;;;;;;;;;;;;;-144.51;100.00;69251.94;4885300;29;19916;-62
2021/10/20 11:31:56;;;;;;;;;;;;;;;-144.51;100.00;69251.94;4894419;29;19915;-61
2021/10/20 11:34:43;;;;;;;;;;;;;;;-144.51;100.00;69251.94;4905538;29;19923;-62
2021/10/20 11:37:27;;;;;;;;;;;;;;;-144.51;100.00;69251.94;4903252;29;19915;-62
2021/10/20 11:40:12;;;;;;;;;;;;;;;-144.51;100.00;69251.94;4904920;29;19915;-62
2021/10/20 11:42:56;;;;;;;;;;;;;;;-144.51;100.00;69251.94;4908960;29;19916;-62
2021/10/20 11:45:41;;;;;;;;;;;;;;;-144.51;100.00;69251.94;4902460;29;19916;-62
2021/10/20 11:48:25;;;;;;;;;;;;;;;-144.51;100.00;69251.94;4900230;29;19919;-61
2021/10/20 11:51:10;;;;;;;;;;;;;;;-144.51;100.00;69251.94;4899332;29;19916;-62
2021/10/20 11:53:54;;;;;;;;;;;;;;;-144.51;100.00;69251.94;4900921;29;19919;-62
2021/10/20 11:56:39;;;;;;;;;;;;;;;-144.51;100.00;69251.94;4899508;29;19919;-61
2021/10/20 11:59:24;;;;;;;;;;;;;;;-144.51;100.00;69251.94;4900003;29;19915;-62
2021/10/20 12:02:09;;;;;;;;;;;;;;;-144.51;100.00;69251.94;4900099;29;19915;-61
2021/10/20 12:04:56;;;;;;;;;;;;;;;-144.51;100.00;69251.94;4897772;29;19915;-62
2021/10/20 12:07:46;;;;;;;;;;;;;;;-144.51;100.00;69251.94;4887091;29;19916;-61
2021/10/20 12:10:30;;;;;;;;;;;;;;;-144.51;100.00;69251.94;4893441;29;19915;-61
2021/10/20 12:13:15;;;;;;;;;;;;;;;-144.51;100.00;69251.94;4899712;29;19915;-61
2021/10/20 12:16:01;;;;;;;;;;;;;;;-144.51;100.00;69251.94;4897474;29;19915;-61
2021/10/20 12:18:46;;;;;;;;;;;;;;;-144.51;100.00;69251.94;4896427;29;19916;-62
2021/10/20 12:21:31;;;;;;;;;;;;;;;-144.51;100.00;69251.94;4893235;29;19917;-61
2021/10/20 12:24:18;;;;;;;;;;;;;;;-144.51;100.00;69251.94;4899682;29;19919;-62
2021/10/20 12:27:03;;;;;;;;;;;;;;;-144.51;100.00;69251.94;4894871;29;20379;-61
2021/10/20 12:29:53;;;;;;;;;;;;;;;-144.51;100.00;69251.94;4904965;29;19919;-62
2021/10/20 12:32:39;;;;;;;;;;;;;;;-144.51;100.00;69251.94;4894076;29;19920;-61
2021/10/20 12:35:25;;;;;;;;;;;;;;;-144.51;100.00;69251.94;4892003;29;19920;-62
2021/10/20 12:38:11;;;;;;;;;;;;;;;-144.51;100.00;69251.94;4898556;29;20291;-61
2021/10/20 12:40:55;;;;;;;;;;;;;;;-144.51;100.00;69251.94;4898117;29;19919;-62
2021/10/20 12:43:40;;;;;;;;;;;;;;;-144.51;100.00;69251.94;4899311;29;20375;-62
2021/10/20 12:46:25;;;;;;;;;;;;;;;-144.51;100.00;69251.94;4900429;29;19915;-61
2021/10/20 12:49:11;;;;;;;;;;;;;;;-144.51;100.00;69251.94;4898995;29;20296;-61
2021/10/20 12:51:56;;;;;;;;;;;;;;;-144.51;100.00;69251.94;4899218;29;19919;-62
2021/10/20 12:54:46;;;;;;;;;;;;;;;-144.51;100.00;69251.94;4899065;29;19923;-61
2021/10/20 12:57:31;;;;;;;;;;;;;;;-144.51;100.00;69251.94;4898062;29;19915;-61
2021/10/20 13:00:20;;;;;;;;;;;;;;;-144.51;100.00;69251.94;4895055;29;20302;-62
2021/10/20 13:03:04;;;;;;;;;;;;;;;-144.51;100.00;69251.94;4898469;29;19916;-62
2021/10/20 13:05:49;;;;;;;;;;;;;;;-144.51;100.00;69251.94;4895606;29;20272;-61
2021/10/20 13:08:37;;;;;;;;;;;;;;;-144.51;100.00;69251.94;4896903;29;20387;-62
2021/10/20 13:11:21;;;;;;;;;;;;;;;-144.51;100.00;69251.94;4897260;29;19919;-62
2021/10/20 13:14:06;;;;;;;;;;;;;;;-144.51;100.00;69251.94;4896751;29;19941;-62
2021/10/20 13:16:51;;;;;;;;;;;;;;;-144.51;100.00;69251.94;4898656;29;19915;-62
2021/10/20 13:19:35;;;;;;;;;;;;;;;-144.51;100.00;69251.94;4897803;29;19915;-61
2021/10/20 13:22:20;;;;;;;;;;;;;;;-144.51;100.00;69251.94;4897543;29;20276;-62
2021/10/20 13:25:05;;;;;;;;;;;;;;;-144.51;100.00;69251.94;4898285;29;19915;-62
2021/10/20 13:27:49;;;;;;;;;;;;;;;-144.51;100.00;69251.94;4890857;29;19915;-62
2021/10/20 13:30:38;;;;;;;;;;;;;;;-144.51;100.00;69251.94;4895423;29;20318;-61
2021/10/20 13:33:22;;;;;;;;;;;;;;;-144.51;100.00;69251.94;4892745;29;19917;-62
2021/10/20 13:36:11;;;;;;;;;;;;;;;-144.51;100.00;69251.94;4896540;29;19920;-61
2021/10/20 13:38:56;;;;;;;;;;;;;;;-144.51;100.00;69251.94;4898095;29;20368;-62
2021/10/20 13:41:41;;;;;;;;;;;;;;;-144.51;100.00;69251.94;4902313;29;20335;-62
2021/10/20 13:44:25;;;;;;;;;;;;;;;-144.51;100.00;69251.94;4898175;29;20379;-61
2021/10/20 13:47:10;;;;;;;;;;;;;;;-144.51;100.00;69251.94;4898050;29;19915;-61
2021/10/20 13:49:54;;;;;;;;;;;;;;;-144.51;100.00;69251.94;4898015;29;19915;-62